createdAt,value
2023-04-14T00:01:35.618Z,100415.97
2023-04-14T00:04:37.792Z,100418.06
2023-04-14T00:07:40.011Z,100419.84
2023-04-14T00:10:42.230Z,100424.66
2023-04-14T00:13:44.324Z,100416.53
2023-04-14T00:16:47.058Z,100417.53
2023-04-14T00:19:49.302Z,100429.00
2023-04-14T00:22:51.930Z,100424.75
2023-04-14T00:25:54.238Z,100427.84
2023-04-14T00:28:56.240Z,100433.69
2023-04-14T00:31:58.395Z,100435.34
2023-04-14T00:35:03.499Z,100435.03
2023-04-14T00:38:05.662Z,100432.94
2023-04-14T00:41:07.819Z,100438.34
2023-04-14T00:44:10.089Z,100437.28
2023-04-14T00:47:12.566Z,100445.41
2023-04-14T00:50:15.854Z,100443.97
2023-04-14T00:53:18.076Z,100438.03
2023-04-14T00:56:21.012Z,100428.97
2023-04-14T00:59:23.666Z,100440.81
2023-04-14T01:02:26.429Z,100435.34
2023-04-14T01:05:28.896Z,100432.25
2023-04-14T01:08:32.289Z,100436.63
2023-04-14T01:11:40.894Z,100434.53
2023-04-14T01:14:42.849Z,100433.59
2023-04-14T01:18:06.348Z,100431.06
2023-04-14T01:21:23.086Z,100426.13
2023-04-14T01:24:37.920Z,100429.88
2023-04-14T01:27:46.540Z,100438.00
2023-04-14T01:31:17.577Z,100425.34
2023-04-14T01:34:33.078Z,100420.47
2023-04-14T01:37:41.694Z,100422.88
2023-04-14T01:40:49.127Z,100423.31
2023-04-14T01:43:55.217Z,100416.16
2023-04-14T01:47:04.020Z,100428.28
2023-04-14T01:50:09.122Z,100436.91
2023-04-14T01:53:13.715Z,100422.16
2023-04-14T01:56:17.463Z,100417.50
2023-04-14T01:59:22.839Z,100421.25
2023-04-14T02:02:27.206Z,100416.69
2023-04-14T02:05:31.778Z,100424.56
2023-04-14T02:08:35.840Z,100411.19
2023-04-14T02:11:39.624Z,100407.03
2023-04-14T02:14:43.570Z,100416.88
2023-04-14T02:17:49.625Z,100417.66
2023-04-14T02:20:54.321Z,100410.50
2023-04-14T02:23:56.571Z,100409.69
2023-04-14T02:27:34.051Z,100415.53
2023-04-14T02:30:42.591Z,100417.50
2023-04-14T02:33:53.864Z,100414.88
2023-04-14T02:36:59.283Z,100414.34
2023-04-14T02:40:04.946Z,100405.63
2023-04-14T02:43:28.774Z,100412.91
2023-04-14T02:46:36.549Z,100411.84
2023-04-14T02:49:43.334Z,100426.16
2023-04-14T02:52:51.457Z,100423.44
2023-04-14T02:55:56.465Z,100421.13
2023-04-14T02:58:59.958Z,100406.53
2023-04-14T03:02:06.217Z,100411.28
2023-04-14T03:05:13.163Z,100413.44
2023-04-14T03:08:28.407Z,100413.34
2023-04-14T03:11:33.093Z,100412.84
2023-04-14T03:14:39.232Z,100413.00
2023-04-14T03:17:43.823Z,100424.16
2023-04-14T03:20:47.395Z,100423.06
2023-04-14T03:23:52.998Z,100436.00
2023-04-14T03:27:00.459Z,100437.34
2023-04-14T03:30:07.499Z,100431.78
2023-04-14T03:33:14.987Z,100446.97
2023-04-14T03:36:20.399Z,100440.63
2023-04-14T03:39:27.537Z,100432.00
2023-04-14T03:42:33.172Z,100434.53
2023-04-14T03:45:40.654Z,100430.78
2023-04-14T03:48:46.275Z,100422.44
2023-04-14T03:51:53.671Z,100421.47
2023-04-14T03:55:03.673Z,100415.19
2023-04-14T03:58:08.897Z,100427.47
2023-04-14T04:01:12.736Z,100434.38
2023-04-14T04:04:15.877Z,100431.03
2023-04-14T04:07:20.988Z,100443.00
2023-04-14T04:10:25.001Z,100435.56
2023-04-14T04:13:28.593Z,100440.56
2023-04-14T04:16:32.456Z,100448.13
2023-04-14T04:19:36.510Z,100461.00
2023-04-14T04:22:42.271Z,100453.91
2023-04-14T04:25:45.557Z,100459.47
2023-04-14T04:28:59.623Z,100459.97
2023-04-14T04:32:02.765Z,100461.41
2023-04-14T04:35:09.101Z,100472.16
2023-04-14T04:38:13.583Z,100465.19
2023-04-14T04:41:33.062Z,100483.63
2023-04-14T04:45:52.822Z,100469.38
2023-04-14T04:48:57.653Z,100465.53
2023-04-14T04:52:00.991Z,100478.06
2023-04-14T04:55:04.018Z,100477.22
2023-04-14T04:58:06.225Z,100475.56
2023-04-14T05:01:11.114Z,100482.22
2023-04-14T05:04:13.483Z,100477.66
2023-04-14T05:07:20.033Z,100493.28
2023-04-14T05:10:23.005Z,100490.22
2023-04-14T05:13:28.318Z,100490.88
2023-04-14T05:16:30.498Z,100487.25
2023-04-14T05:19:32.690Z,100481.03
2023-04-14T05:22:34.869Z,100479.22
2023-04-14T05:25:36.966Z,100471.09
2023-04-14T05:28:40.059Z,100470.28
2023-04-14T05:31:42.239Z,100473.00
2023-04-14T05:34:44.493Z,100465.66
2023-04-14T05:37:46.649Z,100469.88
2023-04-14T05:40:49.209Z,100461.31
2023-04-14T05:43:51.282Z,100461.94
2023-04-14T05:46:53.332Z,100466.34
2023-04-14T05:49:55.425Z,100462.16
2023-04-14T05:52:57.937Z,100452.34
2023-04-14T05:56:02.236Z,100441.28
2023-04-14T05:59:04.415Z,100445.22
2023-04-14T06:02:07.631Z,100442.94
2023-04-14T06:05:10.482Z,100442.09
2023-04-14T06:08:12.719Z,100433.53
2023-04-14T06:11:14.782Z,100446.09
2023-04-14T06:14:16.776Z,100439.81
2023-04-14T06:17:19.726Z,100448.16
2023-04-14T06:20:22.094Z,100444.84
2023-04-14T06:23:24.819Z,100438.34
2023-04-14T06:26:31.170Z,100433.56
2023-04-14T06:29:33.242Z,100430.63
2023-04-14T06:32:40.591Z,100419.16
2023-04-14T06:35:50.916Z,100404.25
2023-04-14T06:39:02.817Z,100410.13
2023-04-14T06:42:05.181Z,100404.63
2023-04-14T06:45:08.242Z,100414.50
2023-04-14T06:48:11.828Z,100418.78
2023-04-14T06:51:14.478Z,100412.78
2023-04-14T06:54:17.046Z,100427.38
2023-04-14T06:57:19.120Z,100442.56
2023-04-14T07:00:21.502Z,100445.72
2023-04-14T07:03:24.124Z,100440.19
2023-04-14T07:06:26.880Z,100432.97
2023-04-14T07:09:33.273Z,100421.47
2023-04-14T07:12:35.434Z,100425.69
2023-04-14T07:15:40.723Z,100423.34
2023-04-14T07:18:44.800Z,100422.97
2023-04-14T07:21:47.409Z,100417.38
2023-04-14T07:24:49.548Z,100406.44
2023-04-14T07:28:02.665Z,100410.53
2023-04-14T07:31:13.619Z,100410.44
2023-04-14T07:34:15.827Z,100410.38
2023-04-14T07:37:19.958Z,100406.50
2023-04-14T07:40:25.739Z,100414.34
2023-04-14T07:43:28.022Z,100404.97
2023-04-14T07:46:36.846Z,100407.63
2023-04-14T07:53:12.066Z,100407.97
2023-04-14T07:56:16.400Z,100407.25
2023-04-14T07:59:18.666Z,100418.28
2023-04-14T08:02:23.842Z,100409.09
2023-04-14T08:05:52.330Z,100409.53
2023-04-14T08:08:56.996Z,100400.44
2023-04-14T08:11:59.062Z,100398.31
2023-04-14T08:15:03.400Z,100401.16
2023-04-14T08:18:08.827Z,100398.31
2023-04-14T08:21:16.643Z,100397.00
2023-04-14T08:24:19.519Z,100386.63
2023-04-14T08:27:42.384Z,100386.44
2023-04-14T08:37:37.491Z,100377.28
2023-04-14T08:57:00.508Z,100338.75
2023-04-14T09:00:05.209Z,100357.31
2023-04-14T09:03:09.565Z,100344.47
2023-04-14T09:06:15.295Z,100349.97
2023-04-14T09:09:19.586Z,100358.41
2023-04-14T09:12:30.908Z,100357.19
2023-04-14T09:15:34.930Z,100351.91
2023-04-14T09:18:37.412Z,100346.88
2023-04-14T09:21:52.731Z,100353.38
2023-04-14T09:24:57.478Z,100348.75
2023-04-14T09:28:00.249Z,100339.41
2023-04-14T09:31:03.133Z,100339.41
2023-04-14T09:34:14.987Z,100334.38
2023-04-14T09:37:17.993Z,100336.06
2023-04-14T09:40:33.245Z,100330.59
2023-04-14T09:43:36.934Z,100332.00
2023-04-14T09:47:06.529Z,100321.25
2023-04-14T09:50:08.721Z,100312.78
2023-04-14T09:53:11.106Z,100326.31
2023-04-14T09:56:14.257Z,100308.53
2023-04-14T09:59:31.471Z,100317.22
2023-04-14T10:03:16.319Z,100309.41
2023-04-14T10:06:48.859Z,100314.47
2023-04-14T10:09:51.168Z,100319.28
2023-04-14T10:13:21.659Z,100318.09
2023-04-14T10:16:26.570Z,100320.19
2023-04-14T10:19:30.205Z,100325.47
2023-04-14T10:22:36.367Z,100319.38
2023-04-14T10:25:38.752Z,100319.59
2023-04-14T10:28:47.093Z,100310.03
2023-04-14T10:31:55.110Z,100313.09
2023-04-14T10:35:10.310Z,100322.31
2023-04-14T10:38:12.825Z,100322.44
2023-04-14T10:41:15.341Z,100324.22
2023-04-14T10:44:30.001Z,100332.69
2023-04-14T10:47:35.597Z,100328.78
2023-04-14T10:50:49.101Z,100322.78
2023-04-14T10:53:55.832Z,100317.44
2023-04-14T10:57:14.867Z,100314.09
2023-04-14T11:00:24.410Z,100302.78
2023-04-14T11:03:34.547Z,100305.81
2023-04-14T11:06:49.036Z,100307.81
2023-04-14T11:09:51.468Z,100305.25
2023-04-14T11:13:08.549Z,100305.50
2023-04-14T11:16:33.353Z,100301.78
2023-04-14T11:19:40.251Z,100305.22
2023-04-14T11:22:47.629Z,100307.53
2023-04-14T11:25:51.661Z,100305.41
2023-04-14T11:29:07.519Z,100284.97
2023-04-14T11:32:11.944Z,100291.78
2023-04-14T11:35:17.055Z,100286.56
2023-04-14T11:38:19.501Z,100274.03
2023-04-14T11:41:22.378Z,100261.28
2023-04-14T11:44:30.164Z,100277.69
2023-04-14T11:48:03.499Z,100269.16
2023-04-14T11:51:08.295Z,100265.75
2023-04-14T11:54:14.654Z,100273.78
2023-04-14T11:57:17.719Z,100272.94
2023-04-14T12:00:20.097Z,100284.13
2023-04-14T12:03:25.984Z,100272.28
2023-04-14T12:06:37.624Z,100265.78
2023-04-14T12:09:45.881Z,100270.44
2023-04-14T12:12:47.957Z,100257.72
2023-04-14T12:15:50.508Z,100246.00
2023-04-14T12:18:52.625Z,100248.81
2023-04-14T12:21:54.830Z,100243.00
2023-04-14T12:24:57.728Z,100233.19
2023-04-14T12:28:02.664Z,100243.50
2023-04-14T12:31:05.171Z,100241.16
2023-04-14T12:34:07.317Z,100234.19
2023-04-14T12:37:13.516Z,100238.91
2023-04-14T12:40:16.431Z,100220.94
2023-04-14T12:43:28.201Z,100223.25
2023-04-14T12:46:32.767Z,100231.09
2023-04-14T12:49:38.853Z,100229.63
2023-04-14T12:52:41.402Z,100236.88
2023-04-14T12:55:43.499Z,100215.53
2023-04-14T12:58:47.385Z,100222.50
2023-04-14T13:01:49.681Z,100211.75
2023-04-14T13:04:51.938Z,100211.09
2023-04-14T13:07:54.922Z,100203.78
2023-04-14T13:10:57.630Z,100211.00
2023-04-14T13:14:00.179Z,100219.22
2023-04-14T13:17:03.606Z,100200.31
2023-04-14T13:20:06.329Z,100198.78
2023-04-14T13:23:08.449Z,100195.91
2023-04-14T13:26:10.668Z,100188.44
2023-04-14T13:29:16.059Z,100199.19
2023-04-14T13:32:18.635Z,100193.66
2023-04-14T13:35:20.778Z,100207.53
2023-04-14T13:38:23.105Z,100182.22
2023-04-14T13:41:26.793Z,100179.56
2023-04-14T13:44:30.983Z,100174.56
2023-04-14T13:47:33.163Z,100182.28
2023-04-14T13:50:35.346Z,100180.56
2023-04-14T13:53:37.798Z,100175.25
2023-04-14T13:56:39.812Z,100181.56
2023-04-14T13:59:42.521Z,100175.00
2023-04-14T14:02:45.196Z,100178.22
2023-04-14T14:05:48.096Z,100176.56
2023-04-14T14:09:04.165Z,100178.16
2023-04-14T14:12:11.511Z,100186.00
2023-04-14T14:15:14.033Z,100174.19
2023-04-14T14:18:18.440Z,100177.81
2023-04-14T14:21:20.582Z,100175.41
2023-04-14T14:24:25.487Z,100174.94
2023-04-14T14:27:27.817Z,100180.31
2023-04-14T14:30:30.092Z,100178.44
2023-04-14T14:33:35.560Z,100172.56
2023-04-14T14:36:38.925Z,100166.84
2023-04-14T14:39:41.290Z,100170.81
2023-04-14T14:42:47.113Z,100171.22
2023-04-14T14:45:50.264Z,100169.34
2023-04-14T14:48:52.811Z,100167.94
2023-04-14T14:51:55.612Z,100158.41
2023-04-14T14:54:59.334Z,100170.50
2023-04-14T14:58:01.825Z,100170.16
2023-04-14T15:01:06.103Z,100184.91
2023-04-14T15:04:09.669Z,100182.94
2023-04-14T15:07:12.662Z,100192.34
2023-04-14T15:10:15.680Z,100198.31
2023-04-14T15:13:18.147Z,100191.59
2023-04-14T15:16:20.234Z,100204.28
2023-04-14T15:19:23.930Z,100197.56
2023-04-14T15:22:26.191Z,100198.06
2023-04-14T15:25:28.357Z,100193.25
2023-04-14T15:28:30.774Z,100199.53
2023-04-14T15:31:33.375Z,100208.13
2023-04-14T15:34:43.536Z,100214.50
2023-04-14T15:37:48.362Z,100210.13
2023-04-14T15:40:50.741Z,100206.81
2023-04-14T15:43:52.965Z,100209.78
2023-04-14T15:46:59.695Z,100210.56
2023-04-14T15:50:18.957Z,100212.94
2023-04-14T15:53:31.976Z,100213.63
2023-04-14T15:56:35.853Z,100201.69
2023-04-14T15:59:40.290Z,100210.38
2023-04-14T16:02:43.371Z,100210.72
2023-04-14T16:05:45.958Z,100212.38
2023-04-14T16:08:48.714Z,100204.84
2023-04-14T16:11:51.713Z,100217.63
2023-04-14T16:14:54.754Z,100206.03
2023-04-14T16:17:58.277Z,100204.75
2023-04-14T16:21:00.441Z,100212.94
2023-04-14T16:24:04.134Z,100220.53
2023-04-14T16:27:09.593Z,100219.28
2023-04-14T16:30:12.340Z,100230.59
2023-04-14T16:33:14.383Z,100227.88
2023-04-14T16:36:17.065Z,100234.03
2023-04-14T16:39:19.978Z,100239.03
2023-04-14T16:42:24.680Z,100240.81
2023-04-14T16:45:27.243Z,100244.75
2023-04-14T16:48:31.475Z,100251.63
2023-04-14T16:51:33.861Z,100239.53
2023-04-14T16:54:38.294Z,100233.72
2023-04-14T16:57:40.830Z,100252.94
2023-04-14T17:00:43.286Z,100249.03
2023-04-14T17:03:45.666Z,100247.22
2023-04-14T17:06:47.927Z,100242.75
2023-04-14T17:09:51.672Z,100244.41
2023-04-14T17:12:55.571Z,100245.91
2023-04-14T17:16:06.153Z,100252.81
2023-04-14T17:19:10.805Z,100248.19
2023-04-14T17:22:13.640Z,100244.63
2023-04-14T17:25:19.431Z,100250.53
2023-04-14T17:28:22.873Z,100268.47
2023-04-14T17:31:27.917Z,100280.81
2023-04-14T17:34:30.796Z,100285.19
2023-04-14T17:37:33.297Z,100296.94
2023-04-14T17:40:37.267Z,100304.75
2023-04-14T17:43:39.766Z,100294.31
2023-04-14T17:46:42.162Z,100298.13
2023-04-14T17:49:44.540Z,100296.94
2023-04-14T17:52:54.924Z,100299.50
2023-04-14T17:55:57.895Z,100303.06
2023-04-14T17:59:00.697Z,100311.34
2023-04-14T18:02:02.922Z,100304.00
2023-04-14T18:05:06.640Z,100304.59
2023-04-14T18:08:08.882Z,100294.38
2023-04-14T18:11:12.329Z,100298.63
2023-04-14T18:14:15.501Z,100298.97
2023-04-14T18:17:18.671Z,100314.72
2023-04-14T18:20:25.045Z,100319.53
2023-04-14T18:23:27.529Z,100320.22
2023-04-14T18:26:31.315Z,100329.94
2023-04-14T18:29:33.458Z,100344.16
2023-04-14T18:32:35.931Z,100342.34
2023-04-14T18:35:38.174Z,100338.19
2023-04-14T18:38:44.225Z,100331.75
2023-04-14T18:41:47.053Z,100336.81
2023-04-14T18:44:49.345Z,100337.91
2023-04-14T18:47:51.546Z,100328.00
2023-04-14T18:51:12.638Z,100336.84
2023-04-14T18:54:15.292Z,100342.53
2023-04-14T18:57:18.580Z,100350.97
2023-04-14T19:00:20.880Z,100329.63
2023-04-14T19:03:23.879Z,100331.28
2023-04-14T19:06:26.958Z,100334.47
2023-04-14T19:09:29.089Z,100326.34
2023-04-14T19:12:32.160Z,100322.44
2023-04-14T19:15:34.717Z,100315.84
2023-04-14T19:18:37.050Z,100322.41
2023-04-14T19:21:39.138Z,100327.56
2023-04-14T19:24:41.291Z,100330.28
2023-04-14T19:27:43.996Z,100327.34
2023-04-14T19:30:46.783Z,100315.44
2023-04-14T19:33:49.354Z,100319.69
2023-04-14T19:36:51.664Z,100319.53
2023-04-14T19:39:54.160Z,100318.53
2023-04-14T19:42:56.903Z,100318.53
2023-04-14T19:46:09.706Z,100339.69
2023-04-14T19:49:17.573Z,100324.03
2023-04-14T19:52:20.414Z,100336.53
2023-04-14T19:55:24.386Z,100332.44
2023-04-14T19:58:28.579Z,100349.66
2023-04-14T20:01:31.977Z,100350.59
2023-04-14T20:04:34.952Z,100339.91
2023-04-14T20:07:37.236Z,100328.03
2023-04-14T20:10:40.200Z,100338.47
2023-04-14T20:13:43.111Z,100346.97
2023-04-14T20:16:45.370Z,100340.53
2023-04-14T20:19:47.532Z,100349.91
2023-04-14T20:22:49.857Z,100339.84
2023-04-14T20:25:53.376Z,100358.06
2023-04-14T20:28:56.146Z,100354.59
2023-04-14T20:31:58.754Z,100361.06
2023-04-14T20:35:00.937Z,100351.69
2023-04-14T20:38:07.058Z,100363.94
2023-04-14T20:41:10.316Z,100345.63
2023-04-14T20:44:12.499Z,100344.31
2023-04-14T20:47:15.303Z,100350.50
2023-04-14T20:50:18.807Z,100356.06
2023-04-14T20:53:22.886Z,100351.63
2023-04-14T20:56:28.671Z,100349.84
2023-04-14T20:59:30.906Z,100357.34
2023-04-14T21:02:33.050Z,100361.31
2023-04-14T21:05:35.761Z,100362.78
2023-04-14T21:08:39.654Z,100369.47
2023-04-14T21:11:42.032Z,100375.84
2023-04-14T21:15:42.215Z,100383.47
2023-04-14T21:18:06.311Z,100386.00
2023-04-14T21:21:11.294Z,100384.84
2023-04-14T21:24:13.920Z,100389.63
2023-04-14T21:27:17.518Z,100381.56
2023-04-14T21:30:19.734Z,100378.31
2023-04-14T21:33:22.870Z,100379.41
2023-04-14T21:36:25.220Z,100368.72
2023-04-14T21:39:28.853Z,100360.72
2023-04-14T21:42:32.133Z,100358.91
2023-04-14T21:45:35.338Z,100367.00
2023-04-14T21:48:37.660Z,100356.38
2023-04-14T21:51:39.842Z,100355.56
2023-04-14T21:54:44.437Z,100352.91
2023-04-14T21:57:49.470Z,100346.69
2023-04-14T22:00:55.902Z,100362.63
2023-04-14T22:03:59.027Z,100365.34
2023-04-14T22:07:02.585Z,100371.34
2023-04-14T22:10:05.228Z,100370.38
2023-04-14T22:13:07.247Z,100376.50
2023-04-14T22:16:12.348Z,100373.97
2023-04-14T22:19:14.850Z,100381.94
2023-04-14T22:22:17.513Z,100395.88
2023-04-14T22:25:20.913Z,100400.06
2023-04-14T22:28:23.158Z,100397.41
2023-04-14T22:31:28.263Z,100393.66
2023-04-14T22:34:30.770Z,100386.16
2023-04-14T22:37:33.268Z,100382.25
2023-04-14T22:40:37.119Z,100369.34
2023-04-14T22:43:39.398Z,100375.00
2023-04-14T22:46:41.892Z,100368.13
2023-04-14T22:49:44.187Z,100354.09
2023-04-14T22:52:47.031Z,100350.34
2023-04-14T22:55:49.170Z,100355.81
2023-04-14T22:58:51.290Z,100361.06
2023-04-14T23:01:53.712Z,100353.94
2023-04-14T23:04:55.835Z,100344.78
2023-04-14T23:07:58.512Z,100358.56
2023-04-14T23:11:00.706Z,100356.94
2023-04-14T23:14:03.839Z,100360.47
2023-04-14T23:17:05.949Z,100359.88
2023-04-14T23:20:09.261Z,100360.94
2023-04-14T23:23:12.469Z,100372.47
2023-04-14T23:26:14.719Z,100367.66
2023-04-14T23:29:18.395Z,100351.53
2023-04-14T23:32:20.527Z,100341.72
2023-04-14T23:35:22.625Z,100334.41
2023-04-14T23:38:27.011Z,100330.47
2023-04-14T23:41:29.481Z,100334.69
2023-04-14T23:44:32.243Z,100346.19
2023-04-14T23:47:34.354Z,100345.94
2023-04-14T23:50:58.921Z,100349.09
2023-04-14T23:54:02.246Z,100343.88
2023-04-14T23:57:04.673Z,100360.59
